createdAt,value
2022-11-06T00:01:54.843Z,11.40
2022-11-06T00:05:17.318Z,11.30
2022-11-06T00:08:31.563Z,12.38
2022-11-06T00:11:34.587Z,11.23
2022-11-06T00:14:36.987Z,12.43
2022-11-06T00:17:41.862Z,11.20
2022-11-06T00:20:44.348Z,12.53
2022-11-06T00:23:48.526Z,11.70
2022-11-06T00:26:54.437Z,12.27
2022-11-06T00:29:58.922Z,12.10
2022-11-06T00:33:01.407Z,11.27
2022-11-06T00:36:05.717Z,12.37
2022-11-06T00:39:11.162Z,12.55
2022-11-06T00:42:13.958Z,12.18
2022-11-06T00:45:16.634Z,12.40
2022-11-06T00:48:19.106Z,10.70
2022-11-06T00:51:26.862Z,12.00
2022-11-06T00:54:29.371Z,11.55
2022-11-06T00:57:32.201Z,12.75
2022-11-06T01:00:34.729Z,10.93
2022-11-06T01:03:38.889Z,10.93
2022-11-06T01:06:44.203Z,11.43
2022-11-06T01:09:47.059Z,11.65
2022-11-06T01:12:49.443Z,11.88
2022-11-06T01:15:51.953Z,11.57
2022-11-06T01:18:56.300Z,10.40
2022-11-06T01:21:58.892Z,12.13
2022-11-06T01:25:01.430Z,10.27
2022-11-06T01:28:04.280Z,11.63
2022-11-06T01:31:09.890Z,11.05
2022-11-06T01:34:13.164Z,12.32
2022-11-06T01:37:15.674Z,11.23
2022-11-06T01:40:20.311Z,11.07
2022-11-06T01:43:42.971Z,9.93
2022-11-06T01:46:45.566Z,10.18
2022-11-06T01:49:49.759Z,10.15
2022-11-06T01:52:52.910Z,9.83
2022-11-06T01:55:59.965Z,11.43
2022-11-06T01:59:03.711Z,10.43
2022-11-06T02:02:06.569Z,11.80
2022-11-06T02:05:09.659Z,11.38
2022-11-06T02:08:15.126Z,11.67
2022-11-06T02:11:18.017Z,10.82
2022-11-06T02:14:43.447Z,11.35
2022-11-06T02:17:55.260Z,9.63
2022-11-06T02:21:34.686Z,10.57
2022-11-06T02:24:49.323Z,9.93
2022-11-06T02:28:03.274Z,10.32
2022-11-06T02:31:12.362Z,9.95
2022-11-06T02:34:18.728Z,10.65
2022-11-06T02:37:28.451Z,10.73
2022-11-06T02:40:36.919Z,9.73
2022-11-06T02:43:43.968Z,10.20
2022-11-06T02:46:59.176Z,9.82
2022-11-06T02:50:05.378Z,10.65
2022-11-06T02:53:09.923Z,10.93
2022-11-06T02:56:16.535Z,9.90
2022-11-06T02:59:23.908Z,9.32
2022-11-06T03:02:33.397Z,9.43
2022-11-06T03:05:47.362Z,9.25
2022-11-06T03:09:00.736Z,10.43
2022-11-06T03:12:28.524Z,9.53
2022-11-06T03:15:38.666Z,8.98
2022-11-06T03:18:58.881Z,10.32
2022-11-06T03:22:09.158Z,9.75
2022-11-06T03:25:21.725Z,9.05
2022-11-06T03:28:40.296Z,9.40
2022-11-06T03:31:55.509Z,8.70
2022-11-06T03:35:16.203Z,8.57
2022-11-06T03:38:42.728Z,11.00
2022-11-06T03:41:53.748Z,8.80
2022-11-06T03:45:10.897Z,9.80
2022-11-06T03:48:22.619Z,9.05
2022-11-06T03:51:42.356Z,9.18
2022-11-06T03:54:52.500Z,9.30
2022-11-06T03:58:24.435Z,9.80
2022-11-06T04:01:32.451Z,8.30
2022-11-06T04:04:41.805Z,9.88
2022-11-06T04:08:08.176Z,10.13
2022-11-06T04:11:32.559Z,9.20
2022-11-06T04:14:37.337Z,9.15
2022-11-06T04:17:41.925Z,9.20
2022-11-06T04:21:26.149Z,8.15
2022-11-06T04:25:01.427Z,8.75
2022-11-06T04:28:25.520Z,9.23
2022-11-06T04:31:34.479Z,8.90
2022-11-06T04:34:42.940Z,8.37
2022-11-06T04:37:57.399Z,10.50
2022-11-06T04:41:18.623Z,9.90
2022-11-06T04:44:32.414Z,7.80
2022-11-06T04:47:36.692Z,8.25
2022-11-06T04:50:50.282Z,8.23
2022-11-06T04:53:54.256Z,9.02
2022-11-06T04:57:00.619Z,8.93
2022-11-06T05:00:04.324Z,8.85
2022-11-06T05:03:07.416Z,8.80
2022-11-06T05:06:09.970Z,7.97
2022-11-06T05:09:12.634Z,7.68
2022-11-06T05:12:16.178Z,7.85
2022-11-06T05:15:18.702Z,7.97
2022-11-06T05:18:21.248Z,7.68
2022-11-06T05:21:42.334Z,8.67
2022-11-06T05:24:44.829Z,7.55
2022-11-06T05:27:47.263Z,8.13
2022-11-06T05:30:49.697Z,8.90
2022-11-06T05:33:52.172Z,8.85
2022-11-06T05:36:54.940Z,7.70
2022-11-06T05:39:57.540Z,7.60
2022-11-06T05:43:00.093Z,7.90
2022-11-06T05:46:02.608Z,7.55
2022-11-06T05:49:05.054Z,7.70
2022-11-06T05:52:07.792Z,7.07
2022-11-06T05:55:14.668Z,8.20
2022-11-06T05:58:17.941Z,7.68
2022-11-06T06:01:20.533Z,7.88
2022-11-06T06:04:22.999Z,8.55
2022-11-06T06:07:25.486Z,8.77
2022-11-06T06:10:27.977Z,8.88
2022-11-06T06:13:30.532Z,7.68
2022-11-06T06:16:33.041Z,7.40
2022-11-06T06:19:35.726Z,7.40
2022-11-06T06:22:38.274Z,7.90
2022-11-06T06:25:40.757Z,7.43
2022-11-06T06:28:43.452Z,8.07
2022-11-06T06:31:45.905Z,6.90
2022-11-06T06:34:48.365Z,7.60
2022-11-06T06:37:53.514Z,7.97
2022-11-06T06:40:56.091Z,7.00
2022-11-06T06:43:58.554Z,7.57
2022-11-06T06:47:01.175Z,6.95
2022-11-06T06:50:04.319Z,6.70
2022-11-06T06:53:06.765Z,7.00
2022-11-06T06:56:09.910Z,7.88
2022-11-06T06:59:12.297Z,7.70
2022-11-06T07:02:15.170Z,6.78
2022-11-06T07:05:17.920Z,7.55
2022-11-06T07:08:20.803Z,6.30
2022-11-06T07:11:23.352Z,7.50
2022-11-06T07:14:25.984Z,7.20
2022-11-06T07:17:28.543Z,7.20
2022-11-06T07:20:34.106Z,8.02
2022-11-06T07:23:37.223Z,7.13
2022-11-06T07:26:41.072Z,6.80
2022-11-06T07:29:43.600Z,7.00
2022-11-06T07:32:46.204Z,6.13
2022-11-06T07:35:49.063Z,6.68
2022-11-06T07:38:51.595Z,7.93
2022-11-06T07:41:54.366Z,7.32
2022-11-06T07:44:56.958Z,6.68
2022-11-06T07:47:59.950Z,6.80
2022-11-06T07:51:05.059Z,6.95
2022-11-06T07:54:07.511Z,6.53
2022-11-06T07:57:10.063Z,6.95
2022-11-06T08:00:13.705Z,7.35
2022-11-06T08:03:16.528Z,5.80
2022-11-06T08:06:19.163Z,7.43
2022-11-06T08:09:24.236Z,6.67
2022-11-06T08:12:26.637Z,6.75
2022-11-06T08:15:29.167Z,7.15
2022-11-06T08:18:31.652Z,5.63
2022-11-06T08:21:34.508Z,6.25
2022-11-06T08:24:38.322Z,6.53
2022-11-06T08:27:40.859Z,6.47
2022-11-06T08:30:43.318Z,6.70
2022-11-06T08:33:45.735Z,6.20
2022-11-06T08:36:52.411Z,6.22
2022-11-06T08:39:54.833Z,6.40
2022-11-06T08:43:06.277Z,6.20
2022-11-06T08:46:10.216Z,6.22
2022-11-06T08:49:12.967Z,6.50
2022-11-06T08:52:15.413Z,6.68
2022-11-06T08:55:17.844Z,6.50
2022-11-06T08:58:20.602Z,5.80
2022-11-06T09:01:24.289Z,6.22
2022-11-06T09:04:27.126Z,7.15
2022-11-06T09:07:29.713Z,6.32
2022-11-06T09:10:32.141Z,6.00
2022-11-06T09:13:34.856Z,6.15
2022-11-06T09:16:37.355Z,5.93
2022-11-06T09:19:39.866Z,6.28
2022-11-06T09:22:42.344Z,6.05
2022-11-06T09:25:45.577Z,6.20
2022-11-06T09:28:48.073Z,5.80
2022-11-06T09:31:50.548Z,5.82
2022-11-06T09:34:53.213Z,6.50
2022-11-06T09:38:01.034Z,6.15
2022-11-06T09:41:04.100Z,6.90
2022-11-06T09:44:30.759Z,5.82
2022-11-06T09:47:39.828Z,6.18
2022-11-06T09:51:15.306Z,6.00
2022-11-06T09:54:34.200Z,7.10
2022-11-06T09:57:57.370Z,6.27
2022-11-06T10:01:05.793Z,5.13
2022-11-06T10:04:21.962Z,5.78
2022-11-06T10:07:30.280Z,5.82
2022-11-06T10:10:54.152Z,6.57
2022-11-06T10:14:34.721Z,6.10
2022-11-06T10:17:39.835Z,6.03
2022-11-06T10:20:53.279Z,5.93
2022-11-06T10:23:59.954Z,5.80
2022-11-06T10:27:06.319Z,6.38
2022-11-06T10:30:17.727Z,6.07
2022-11-06T10:33:47.062Z,5.85
2022-11-06T10:36:56.908Z,6.13
2022-11-06T10:40:00.447Z,5.88
2022-11-06T10:43:30.708Z,5.88
2022-11-06T10:46:36.052Z,5.33
2022-11-06T10:49:45.991Z,6.25
2022-11-06T10:53:00.544Z,5.93
2022-11-06T10:56:21.297Z,5.40
2022-11-06T10:59:24.242Z,5.78
2022-11-06T11:02:39.086Z,6.50
2022-11-06T11:05:44.442Z,5.70
2022-11-06T11:08:49.499Z,6.07
2022-11-06T11:11:52.295Z,6.38
2022-11-06T11:15:13.938Z,6.30
2022-11-06T11:18:22.251Z,7.07
2022-11-06T11:21:27.861Z,5.88
2022-11-06T11:24:31.262Z,6.18
2022-11-06T11:27:43.352Z,5.82
2022-11-06T11:30:52.679Z,6.32
2022-11-06T11:33:57.945Z,5.67
2022-11-06T11:37:06.139Z,5.47
2022-11-06T11:40:36.761Z,5.20
2022-11-06T11:43:41.648Z,5.35
2022-11-06T11:46:53.310Z,5.38
2022-11-06T11:49:56.299Z,6.03
2022-11-06T11:53:09.859Z,7.15
2022-11-06T11:56:36.187Z,5.65
2022-11-06T11:59:50.588Z,6.40
2022-11-06T12:02:56.544Z,6.22
2022-11-06T12:06:11.455Z,5.67
2022-11-06T12:09:14.832Z,5.78
2022-11-06T12:12:24.512Z,5.13
2022-11-06T12:16:05.008Z,5.82
2022-11-06T12:19:09.708Z,5.88
2022-11-06T12:22:21.618Z,6.10
2022-11-06T12:25:41.360Z,5.78
2022-11-06T12:28:49.903Z,5.90
2022-11-06T12:32:08.006Z,5.00
2022-11-06T12:35:31.878Z,5.43
2022-11-06T12:38:59.813Z,6.40
2022-11-06T12:42:06.812Z,5.97
2022-11-06T12:45:12.998Z,6.03
2022-11-06T12:48:24.844Z,6.20
2022-11-06T12:51:37.081Z,6.53
2022-11-06T12:54:56.740Z,5.87
2022-11-06T12:58:26.201Z,5.57
2022-11-06T13:01:56.597Z,5.63
2022-11-06T13:05:16.568Z,5.70
2022-11-06T13:08:26.048Z,5.72
2022-11-06T13:11:55.286Z,6.33
2022-11-06T13:15:32.099Z,6.00
2022-11-06T13:18:45.308Z,5.75
2022-11-06T13:21:53.426Z,6.60
2022-11-06T13:25:18.348Z,5.82
2022-11-06T13:28:30.499Z,7.03
2022-11-06T13:31:40.252Z,5.90
2022-11-06T13:34:48.365Z,5.30
2022-11-06T13:37:54.676Z,6.38
2022-11-06T13:41:03.849Z,6.05
2022-11-06T13:44:15.927Z,6.70
2022-11-06T13:48:03.536Z,6.25
2022-11-06T13:51:16.513Z,5.25
2022-11-06T13:54:44.261Z,6.15
2022-11-06T13:58:41.816Z,6.03
2022-11-06T14:02:13.600Z,6.50
2022-11-06T14:05:54.204Z,5.70
2022-11-06T14:09:02.639Z,6.03
2022-11-06T14:12:15.236Z,5.97
2022-11-06T14:15:28.818Z,5.57
2022-11-06T14:18:33.460Z,6.10
2022-11-06T14:21:37.810Z,5.30
2022-11-06T14:24:42.652Z,6.45
2022-11-06T14:27:49.938Z,4.80
2022-11-06T14:34:33.961Z,5.53
2022-11-06T14:37:43.393Z,6.18
2022-11-06T14:40:47.120Z,6.05
2022-11-06T14:43:53.345Z,5.95
2022-11-06T14:47:00.213Z,6.18
2022-11-06T14:50:24.911Z,6.20
2022-11-06T14:53:45.327Z,6.53
2022-11-06T14:56:54.327Z,6.22
2022-11-06T14:59:58.879Z,6.00
2022-11-06T15:03:04.643Z,5.68
2022-11-06T15:06:18.931Z,6.67
2022-11-06T15:09:25.389Z,5.97
2022-11-06T15:13:07.953Z,5.82
2022-11-06T15:16:14.005Z,6.00
2022-11-06T15:19:31.801Z,6.43
2022-11-06T15:22:43.971Z,6.27
2022-11-06T15:25:52.379Z,6.30
2022-11-06T15:29:21.383Z,6.13
2022-11-06T15:32:31.904Z,6.20
2022-11-06T15:35:36.690Z,7.05
2022-11-06T15:38:42.353Z,6.10
2022-11-06T15:41:45.625Z,6.43
2022-11-06T15:44:50.134Z,6.22
2022-11-06T15:48:19.166Z,6.50
2022-11-06T15:51:28.235Z,6.78
2022-11-06T15:54:41.484Z,6.93
2022-11-06T15:57:44.786Z,6.50
2022-11-06T16:00:48.224Z,6.22
2022-11-06T16:03:55.047Z,6.75
2022-11-06T16:07:01.298Z,6.65
2022-11-06T16:10:05.360Z,6.80
2022-11-06T16:13:13.176Z,5.93
2022-11-06T16:16:38.238Z,6.35
2022-11-06T16:19:45.978Z,6.82
2022-11-06T16:22:51.332Z,7.65
2022-11-06T16:26:06.815Z,6.30
2022-11-06T16:29:26.055Z,6.45
2022-11-06T16:32:33.045Z,6.50
2022-11-06T16:35:37.143Z,7.50
2022-11-06T16:38:44.635Z,7.03
2022-11-06T16:42:29.678Z,7.27
2022-11-06T16:45:33.244Z,7.07
2022-11-06T16:48:39.708Z,7.05
2022-11-06T16:51:44.295Z,7.88
2022-11-06T16:54:55.838Z,7.65
2022-11-06T16:58:01.993Z,6.97
2022-11-06T17:01:07.395Z,7.22
2022-11-06T17:04:23.857Z,8.35
2022-11-06T17:07:27.885Z,6.60
2022-11-06T17:10:35.589Z,7.93
2022-11-06T17:13:51.849Z,6.87
2022-11-06T17:16:58.316Z,8.40
2022-11-06T17:20:15.762Z,6.93
2022-11-06T17:23:20.205Z,7.63
2022-11-06T17:26:28.831Z,6.93
2022-11-06T17:29:34.002Z,7.83
2022-11-06T17:32:37.905Z,7.57
2022-11-06T17:35:42.719Z,8.07
2022-11-06T17:38:48.315Z,6.65
2022-11-06T17:41:54.053Z,7.45
2022-11-06T17:44:57.671Z,7.30
2022-11-06T17:48:01.278Z,7.50
2022-11-06T17:51:23.045Z,6.40
2022-11-06T17:54:36.989Z,7.93
2022-11-06T17:57:40.554Z,8.00
2022-11-06T18:00:44.566Z,8.73
2022-11-06T18:03:49.769Z,8.25
2022-11-06T18:06:54.060Z,7.32
2022-11-06T18:09:58.187Z,7.07
2022-11-06T18:13:02.348Z,11.73
2022-11-06T18:16:37.507Z,9.67
2022-11-06T18:19:46.857Z,8.85
2022-11-06T18:22:50.565Z,10.55
2022-11-06T18:25:57.442Z,7.97
2022-11-06T18:29:00.850Z,8.43
2022-11-06T18:32:07.784Z,8.67
2022-11-06T18:35:11.489Z,8.63
2022-11-06T18:38:15.865Z,8.95
2022-11-06T18:41:21.876Z,8.43
2022-11-06T18:44:27.359Z,8.65
2022-11-06T18:47:31.520Z,8.43
2022-11-06T18:50:36.983Z,7.95
2022-11-06T18:53:41.579Z,8.10
2022-11-06T18:56:45.649Z,8.23
2022-11-06T18:59:49.528Z,8.82
2022-11-06T19:02:55.453Z,8.40
2022-11-06T19:05:59.134Z,8.38
2022-11-06T19:09:04.869Z,8.98
2022-11-06T19:12:14.270Z,9.73
2022-11-06T19:15:18.544Z,9.20
2022-11-06T19:18:23.938Z,8.33
2022-11-06T19:21:27.775Z,8.38
2022-11-06T19:24:32.827Z,8.85
2022-11-06T19:27:37.941Z,8.38
2022-11-06T19:30:42.737Z,9.13
2022-11-06T19:33:46.393Z,8.87
2022-11-06T19:36:50.657Z,9.68
2022-11-06T19:39:57.612Z,9.10
2022-11-06T19:43:04.245Z,8.77
2022-11-06T19:46:08.571Z,9.50
2022-11-06T19:49:12.460Z,9.83
2022-11-06T19:52:42.292Z,11.35
2022-11-06T19:55:41.886Z,10.27
2022-11-06T19:58:47.796Z,10.77
2022-11-06T20:01:52.105Z,10.63
2022-11-06T20:04:55.785Z,9.87
2022-11-06T20:08:00.731Z,9.65
2022-11-06T20:11:13.373Z,12.55
2022-11-06T20:14:22.190Z,10.95
2022-11-06T20:17:26.378Z,11.75
2022-11-06T20:20:35.996Z,10.33
2022-11-06T20:23:40.786Z,12.07
2022-11-06T20:26:48.873Z,13.55
2022-11-06T20:29:55.036Z,11.93
2022-11-06T20:32:58.659Z,11.30
2022-11-06T20:36:14.537Z,11.93
2022-11-06T20:39:19.345Z,11.30
2022-11-06T20:42:27.292Z,11.85
2022-11-06T20:45:37.892Z,12.30
2022-11-06T20:48:44.546Z,12.32
2022-11-06T20:52:12.716Z,11.33
2022-11-06T20:55:16.472Z,11.00
2022-11-06T20:58:20.231Z,10.57
2022-11-06T21:01:28.099Z,13.07
2022-11-06T21:04:31.481Z,14.85
2022-11-06T21:07:35.761Z,12.97
2022-11-06T21:10:39.297Z,12.75
2022-11-06T21:13:45.638Z,12.55
2022-11-06T21:16:49.494Z,12.48
2022-11-06T21:19:52.673Z,12.65
2022-11-06T21:22:55.940Z,12.20
2022-11-06T21:26:17.788Z,11.13
2022-11-06T21:29:23.491Z,13.00
2022-11-06T21:32:27.466Z,11.05
2022-11-06T21:35:30.425Z,12.68
2022-11-06T21:38:33.399Z,11.57
2022-11-06T21:41:37.067Z,12.30
2022-11-06T21:44:39.769Z,11.07
2022-11-06T21:47:42.629Z,10.70
2022-11-06T21:50:45.114Z,12.65
2022-11-06T21:54:07.104Z,13.90
2022-11-06T21:57:09.656Z,11.52
2022-11-06T22:00:14.383Z,12.45
2022-11-06T22:03:17.967Z,12.02
2022-11-06T22:06:24.799Z,10.85
2022-11-06T22:09:28.152Z,11.43
2022-11-06T22:12:30.590Z,12.10
2022-11-06T22:15:33.110Z,11.30
2022-11-06T22:18:36.292Z,11.75
2022-11-06T22:21:39.639Z,10.88
2022-11-06T22:24:42.144Z,12.33
2022-11-06T22:27:44.775Z,13.57
2022-11-06T22:30:47.227Z,12.23
2022-11-06T22:33:53.658Z,11.45
2022-11-06T22:36:56.581Z,12.52
2022-11-06T22:39:58.970Z,11.20
2022-11-06T22:43:01.871Z,10.93
2022-11-06T22:46:07.620Z,12.95
2022-11-06T22:49:10.299Z,11.07
2022-11-06T22:52:12.827Z,10.43
2022-11-06T22:55:15.345Z,10.97
2022-11-06T22:58:17.939Z,10.68
2022-11-06T23:01:22.868Z,11.95
2022-11-06T23:04:25.775Z,11.00
2022-11-06T23:07:28.255Z,10.70
2022-11-06T23:10:32.819Z,11.50
2022-11-06T23:13:36.071Z,12.35
2022-11-06T23:16:57.130Z,12.95
2022-11-06T23:19:59.745Z,10.63
2022-11-06T23:23:03.430Z,11.45
2022-11-06T23:26:17.669Z,11.47
2022-11-06T23:29:20.329Z,11.98
2022-11-06T23:32:22.770Z,11.38
2022-11-06T23:35:31.080Z,12.55
2022-11-06T23:38:35.595Z,10.32
2022-11-06T23:41:45.939Z,11.80
2022-11-06T23:45:07.870Z,11.40
2022-11-06T23:48:14.290Z,10.30
2022-11-06T23:51:17.058Z,10.98
2022-11-06T23:54:19.956Z,11.02
2022-11-06T23:57:22.488Z,11.67
